sensor_id;sensor_type;location;lat;lon;timestamp;pressure;altitude;pressure_sealevel;temperature;humidity
69751;BME280;57335;52.288;6.056;2023-03-05T00:01:06;102230.44;;;2.68;100.00
69751;BME280;57335;52.288;6.056;2023-03-05T00:03:33;102214.22;;;2.66;100.00
69751;BME280;57335;52.288;6.056;2023-03-05T00:05:59;102215.84;;;2.78;100.00
69751;BME280;57335;52.288;6.056;2023-03-05T00:08:26;102223.25;;;2.83;100.00
69751;BME280;57335;52.288;6.056;2023-03-05T00:10:57;102211.25;;;2.82;100.00
69751;BME280;57335;52.288;6.056;2023-03-05T00:13:24;102211.94;;;2.84;100.00
69751;BME280;57335;52.288;6.056;2023-03-05T00:15:51;102215.00;;;2.89;100.00
69751;BME280;57335;52.288;6.056;2023-03-05T00:18:18;102206.84;;;2.94;100.00
69751;BME280;57335;52.288;6.056;2023-03-05T00:20:45;102200.53;;;2.87;100.00
69751;BME280;57335;52.288;6.056;2023-03-05T00:23:12;102198.06;;;2.85;100.00
69751;BME280;57335;52.288;6.056;2023-03-05T00:25:39;102211.94;;;2.95;100.00
69751;BME280;57335;52.288;6.056;2023-03-05T00:28:05;102198.28;;;2.93;100.00
69751;BME280;57335;52.288;6.056;2023-03-05T00:30:33;102197.56;;;2.91;100.00
69751;BME280;57335;52.288;6.056;2023-03-05T00:33:00;102197.31;;;2.94;100.00
69751;BME280;57335;52.288;6.056;2023-03-05T00:35:27;102198.97;;;2.95;100.00
69751;BME280;57335;52.288;6.056;2023-03-05T00:37:53;102198.16;;;2.95;100.00
69751;BME280;57335;52.288;6.056;2023-03-05T00:40:20;102197.31;;;2.94;100.00
69751;BME280;57335;52.288;6.056;2023-03-05T00:42:46;102204.47;;;3.02;100.00
69751;BME280;57335;52.288;6.056;2023-03-05T00:45:12;102188.63;;;2.95;100.00
69751;BME280;57335;52.288;6.056;2023-03-05T00:47:39;102185.66;;;3.00;100.00
69751;BME280;57335;52.288;6.056;2023-03-05T00:50:05;102194.94;;;3.03;100.00
69751;BME280;57335;52.288;6.056;2023-03-05T00:52:32;102173.19;;;2.94;100.00
69751;BME280;57335;52.288;6.056;2023-03-05T00:54:58;102188.72;;;3.05;100.00
69751;BME280;57335;52.288;6.056;2023-03-05T00:57:25;102180.47;;;3.00;100.00
69751;BME280;57335;52.288;6.056;2023-03-05T00:59:51;102194.72;;;3.06;100.00
69751;BME280;57335;52.288;6.056;2023-03-05T01:02:17;102180.47;;;3.00;100.00
69751;BME280;57335;52.288;6.056;2023-03-05T01:04:44;102161.31;;;2.91;100.00
69751;BME280;57335;52.288;6.056;2023-03-05T01:07:10;102179.41;;;3.03;100.00
69751;BME280;57335;52.288;6.056;2023-03-05T01:09:36;102155.06;;;2.94;100.00
69751;BME280;57335;52.288;6.056;2023-03-05T01:12:03;102159.44;;;2.93;100.00
69751;BME280;57335;52.288;6.056;2023-03-05T01:14:29;102167.63;;;2.98;100.00
69751;BME280;57335;52.288;6.056;2023-03-05T01:16:56;102154.00;;;2.96;100.00
69751;BME280;57335;52.288;6.056;2023-03-05T01:19:22;102142.25;;;2.92;100.00
69751;BME280;57335;52.288;6.056;2023-03-05T01:21:48;102141.53;;;2.90;100.00
69751;BME280;57335;52.288;6.056;2023-03-05T01:24:15;102166.44;;;3.03;100.00
69751;BME280;57335;52.288;6.056;2023-03-05T01:26:41;102156.47;;;2.98;100.00
69751;BME280;57335;52.288;6.056;2023-03-05T01:29:07;102160.44;;;3.02;100.00
69751;BME280;57335;52.288;6.056;2023-03-05T01:31:34;102144.72;;;2.94;100.00
69751;BME280;57335;52.288;6.056;2023-03-05T01:34:00;102146.56;;;3.03;100.00
69751;BME280;57335;52.288;6.056;2023-03-05T01:36:26;102131.38;;;2.98;100.00
69751;BME280;57335;52.288;6.056;2023-03-05T01:38:53;102138.81;;;3.03;100.00
69751;BME280;57335;52.288;6.056;2023-03-05T01:41:20;102125.38;;;2.98;100.00
69751;BME280;57335;52.288;6.056;2023-03-05T01:43:47;102110.13;;;2.95;100.00
69751;BME280;57335;52.288;6.056;2023-03-05T01:46:34;102125.97;;;3.02;100.00
69751;BME280;57335;52.288;6.056;2023-03-05T01:49:09;102121.50;;;3.04;100.00
69751;BME280;57335;52.288;6.056;2023-03-05T01:54:42;102115.63;;;3.02;100.00
69751;BME280;57335;52.288;6.056;2023-03-05T01:57:14;102102.19;;;2.96;100.00
69751;BME280;57335;52.288;6.056;2023-03-05T01:59:43;102095.41;;;2.95;100.00
69751;BME280;57335;52.288;6.056;2023-03-05T02:02:12;102091.84;;;2.96;100.00
69751;BME280;57335;52.288;6.056;2023-03-05T02:04:44;102100.47;;;2.97;100.00
69751;BME280;57335;52.288;6.056;2023-03-05T02:07:13;102089.41;;;2.95;100.00
69751;BME280;57335;52.288;6.056;2023-03-05T02:09:40;102093.25;;;3.00;100.00
69751;BME280;57335;52.288;6.056;2023-03-05T02:12:07;102086.66;;;2.96;100.00
69751;BME280;57335;52.288;6.056;2023-03-05T02:14:34;102085.72;;;2.97;100.00
69751;BME280;57335;52.288;6.056;2023-03-05T02:17:01;102051.53;;;2.83;100.00
69751;BME280;57335;52.288;6.056;2023-03-05T02:19:28;102069.63;;;2.94;100.00
69751;BME280;57335;52.288;6.056;2023-03-05T02:21:54;102075.00;;;3.02;100.00
69751;BME280;57335;52.288;6.056;2023-03-05T02:24:35;102050.69;;;2.93;100.00
69751;BME280;57335;52.288;6.056;2023-03-05T02:27:03;102066.41;;;3.02;100.00
69751;BME280;57335;52.288;6.056;2023-03-05T02:29:31;102067.09;;;3.04;100.00
69751;BME280;57335;52.288;6.056;2023-03-05T02:31:59;102038.66;;;2.92;100.00
69751;BME280;57335;52.288;6.056;2023-03-05T02:34:26;102047.13;;;2.94;100.00
69751;BME280;57335;52.288;6.056;2023-03-05T02:36:53;102060.03;;;3.06;100.00
69751;BME280;57335;52.288;6.056;2023-03-05T02:39:19;102043.34;;;2.98;100.00
69751;BME280;57335;52.288;6.056;2023-03-05T02:41:45;102038.56;;;2.94;100.00
69751;BME280;57335;52.288;6.056;2023-03-05T02:44:12;102044.88;;;3.01;100.00
69751;BME280;57335;52.288;6.056;2023-03-05T02:46:38;102059.09;;;3.07;100.00
69751;BME280;57335;52.288;6.056;2023-03-05T02:49:04;102044.03;;;3.00;100.00
69751;BME280;57335;52.288;6.056;2023-03-05T02:51:31;102048.00;;;3.05;100.00
69751;BME280;57335;52.288;6.056;2023-03-05T02:53:57;102048.84;;;3.05;100.00
69751;BME280;57335;52.288;6.056;2023-03-05T02:56:23;102041.22;;;3.04;100.00
69751;BME280;57335;52.288;6.056;2023-03-05T02:58:50;102018.53;;;2.96;100.00
69751;BME280;57335;52.288;6.056;2023-03-05T03:01:16;102029.19;;;3.03;100.00
69751;BME280;57335;52.288;6.056;2023-03-05T03:03:42;102033.69;;;3.00;100.00
69751;BME280;57335;52.288;6.056;2023-03-05T03:06:09;102026.19;;;2.97;100.00
69751;BME280;57335;52.288;6.056;2023-03-05T03:08:35;101997.06;;;2.84;100.00
69751;BME280;57335;52.288;6.056;2023-03-05T03:11:08;102021.00;;;2.97;100.00
69751;BME280;57335;52.288;6.056;2023-03-05T03:13:35;102006.78;;;2.92;100.00
69751;BME280;57335;52.288;6.056;2023-03-05T03:16:09;101987.19;;;2.78;100.00
69751;BME280;57335;52.288;6.056;2023-03-05T03:18:36;102010.75;;;2.96;100.00
69751;BME280;57335;52.288;6.056;2023-03-05T03:21:03;101997.69;;;2.97;100.00
69751;BME280;57335;52.288;6.056;2023-03-05T03:23:31;101984.56;;;2.89;100.00
69751;BME280;57335;52.288;6.056;2023-03-05T03:25:58;101972.13;;;2.83;100.00
69751;BME280;57335;52.288;6.056;2023-03-05T03:28:24;101992.41;;;2.99;100.00
69751;BME280;57335;52.288;6.056;2023-03-05T03:30:51;101976.78;;;2.89;100.00
69751;BME280;57335;52.288;6.056;2023-03-05T03:33:17;101980.66;;;2.95;100.00
69751;BME280;57335;52.288;6.056;2023-03-05T03:35:44;101967.13;;;2.91;100.00
69751;BME280;57335;52.288;6.056;2023-03-05T03:38:11;101972.19;;;2.93;100.00
69751;BME280;57335;52.288;6.056;2023-03-05T03:40:37;101988.16;;;2.98;100.00
69751;BME280;57335;52.288;6.056;2023-03-05T03:43:03;101967.56;;;2.96;100.00
69751;BME280;57335;52.288;6.056;2023-03-05T03:45:30;101968.63;;;2.94;100.00
69751;BME280;57335;52.288;6.056;2023-03-05T03:47:56;101968.63;;;2.94;100.00
69751;BME280;57335;52.288;6.056;2023-03-05T03:50:22;101957.72;;;2.90;100.00
69751;BME280;57335;52.288;6.056;2023-03-05T03:52:49;101959.59;;;2.88;100.00
69751;BME280;57335;52.288;6.056;2023-03-05T03:55:16;101952.53;;;2.90;100.00
69751;BME280;57335;52.288;6.056;2023-03-05T03:57:42;101951.84;;;2.88;100.00
69751;BME280;57335;52.288;6.056;2023-03-05T04:00:09;101964.53;;;2.91;100.00
69751;BME280;57335;52.288;6.056;2023-03-05T04:02:35;101950.34;;;2.86;100.00
69751;BME280;57335;52.288;6.056;2023-03-05T04:05:02;101926.03;;;2.77;100.00
69751;BME280;57335;52.288;6.056;2023-03-05T04:07:28;101946.25;;;2.83;100.00
69751;BME280;57335;52.288;6.056;2023-03-05T04:09:55;101951.84;;;2.88;100.00
69751;BME280;57335;52.288;6.056;2023-03-05T04:12:21;101951.84;;;2.88;100.00
69751;BME280;57335;52.288;6.056;2023-03-05T04:14:48;101925.78;;;2.80;100.00
69751;BME280;57335;52.288;6.056;2023-03-05T04:17:15;101930.94;;;2.80;100.00
69751;BME280;57335;52.288;6.056;2023-03-05T04:19:42;101928.47;;;2.78;100.00
69751;BME280;57335;52.288;6.056;2023-03-05T04:22:12;101935.59;;;2.86;100.00
69751;BME280;57335;52.288;6.056;2023-03-05T04:24:39;101924.38;;;2.76;100.00
69751;BME280;57335;52.288;6.056;2023-03-05T04:27:05;101937.38;;;2.86;100.00
69751;BME280;57335;52.288;6.056;2023-03-05T04:29:33;101924.97;;;2.79;100.00
69751;BME280;57335;52.288;6.056;2023-03-05T04:31:59;101906.03;;;2.79;100.00
69751;BME280;57335;52.288;6.056;2023-03-05T04:34:26;101916.69;;;2.86;100.00
69751;BME280;57335;52.288;6.056;2023-03-05T04:36:52;101912.47;;;2.85;100.00
69751;BME280;57335;52.288;6.056;2023-03-05T04:39:19;101905.50;;;2.85;100.00
69751;BME280;57335;52.288;6.056;2023-03-05T04:41:46;101899.63;;;2.83;100.00
69751;BME280;57335;52.288;6.056;2023-03-05T04:44:14;101906.44;;;2.84;100.00
69751;BME280;57335;52.288;6.056;2023-03-05T04:46:40;101911.50;;;2.86;100.00
69751;BME280;57335;52.288;6.056;2023-03-05T04:49:07;101915.47;;;2.90;100.00
69751;BME280;57335;52.288;6.056;2023-03-05T04:51:33;101911.38;;;2.87;100.00
69751;BME280;57335;52.288;6.056;2023-03-05T04:54:00;101911.63;;;2.84;100.00
69751;BME280;57335;52.288;6.056;2023-03-05T04:56:26;101908.91;;;2.86;100.00
69751;BME280;57335;52.288;6.056;2023-03-05T04:58:52;101892.25;;;2.78;100.00
69751;BME280;57335;52.288;6.056;2023-03-05T05:01:20;101880.66;;;2.73;100.00
69751;BME280;57335;52.288;6.056;2023-03-05T05:03:46;101893.78;;;2.81;100.00
69751;BME280;57335;52.288;6.056;2023-03-05T05:06:12;101900.56;;;2.82;100.00
69751;BME280;57335;52.288;6.056;2023-03-05T05:08:39;101906.72;;;2.81;100.00
69751;BME280;57335;52.288;6.056;2023-03-05T05:11:06;101892.63;;;2.74;100.00
69751;BME280;57335;52.288;6.056;2023-03-05T05:13:33;101885.38;;;2.68;100.00
69751;BME280;57335;52.288;6.056;2023-03-05T05:16:00;101904.50;;;2.76;100.00
69751;BME280;57335;52.288;6.056;2023-03-05T05:18:26;101906.16;;;2.77;100.00
69751;BME280;57335;52.288;6.056;2023-03-05T05:20:53;101899.72;;;2.72;100.00
69751;BME280;57335;52.288;6.056;2023-03-05T05:23:19;101902.06;;;2.75;100.00
69751;BME280;57335;52.288;6.056;2023-03-05T05:25:56;101887.97;;;2.68;100.00
69751;BME280;57335;52.288;6.056;2023-03-05T05:28:23;101884.13;;;2.62;100.00
69751;BME280;57335;52.288;6.056;2023-03-05T05:30:49;101873.88;;;2.60;100.00
69751;BME280;57335;52.288;6.056;2023-03-05T05:33:15;101885.38;;;2.68;100.00
69751;BME280;57335;52.288;6.056;2023-03-05T05:35:42;101887.66;;;2.61;100.00
69751;BME280;57335;52.288;6.056;2023-03-05T05:38:08;101889.41;;;2.60;100.00
69751;BME280;57335;52.288;6.056;2023-03-05T05:40:35;101868.22;;;2.46;100.00
69751;BME280;57335;52.288;6.056;2023-03-05T05:43:01;101880.41;;;2.55;100.00
69751;BME280;57335;52.288;6.056;2023-03-05T05:45:27;101876.69;;;2.48;100.00
69751;BME280;57335;52.288;6.056;2023-03-05T05:47:54;101865.34;;;2.39;100.00
69751;BME280;57335;52.288;6.056;2023-03-05T05:50:20;101878.47;;;2.47;100.00
69751;BME280;57335;52.288;6.056;2023-03-05T05:52:47;101884.31;;;2.49;100.00
69751;BME280;57335;52.288;6.056;2023-03-05T05:55:13;101874.91;;;2.48;100.00
69751;BME280;57335;52.288;6.056;2023-03-05T05:57:39;101880.09;;;2.48;100.00
69751;BME280;57335;52.288;6.056;2023-03-05T06:00:08;101868.69;;;2.51;100.00
69751;BME280;57335;52.288;6.056;2023-03-05T06:02:40;101865.06;;;2.42;100.00
69751;BME280;57335;52.288;6.056;2023-03-05T06:05:10;101874.66;;;2.51;100.00
69751;BME280;57335;52.288;6.056;2023-03-05T06:07:37;101873.72;;;2.52;100.00
69751;BME280;57335;52.288;6.056;2023-03-05T06:10:03;101858.69;;;2.46;100.00
69751;BME280;57335;52.288;6.056;2023-03-05T06:12:30;101871.13;;;2.52;100.00
69751;BME280;57335;52.288;6.056;2023-03-05T06:14:56;101879.34;;;2.57;100.00
69751;BME280;57335;52.288;6.056;2023-03-05T06:17:23;101871.13;;;2.52;100.00
69751;BME280;57335;52.288;6.056;2023-03-05T06:19:56;101882.50;;;2.61;100.00
69751;BME280;57335;52.288;6.056;2023-03-05T06:22:22;101878.13;;;2.62;100.00
69751;BME280;57335;52.288;6.056;2023-03-05T06:24:48;101878.00;;;2.63;100.00
69751;BME280;57335;52.288;6.056;2023-03-05T06:27:15;101871.06;;;2.64;100.00
69751;BME280;57335;52.288;6.056;2023-03-05T06:29:41;101874.84;;;2.59;100.00
69751;BME280;57335;52.288;6.056;2023-03-05T06:32:07;101880.22;;;2.68;100.00
69751;BME280;57335;52.288;6.056;2023-03-05T06:34:34;101868.47;;;2.64;100.00
69751;BME280;57335;52.288;6.056;2023-03-05T06:37:00;101873.00;;;2.71;100.00
69751;BME280;57335;52.288;6.056;2023-03-05T06:39:27;101865.50;;;2.68;100.00
69751;BME280;57335;52.288;6.056;2023-03-05T06:41:53;101871.81;;;2.75;100.00
69751;BME280;57335;52.288;6.056;2023-03-05T06:44:19;101858.41;;;2.70;100.00
69751;BME280;57335;52.288;6.056;2023-03-05T06:46:46;101871.16;;;2.83;100.00
69751;BME280;57335;52.288;6.056;2023-03-05T06:49:12;101850.28;;;2.75;100.00
69751;BME280;57335;52.288;6.056;2023-03-05T06:51:38;101872.13;;;2.92;100.00
69751;BME280;57335;52.288;6.056;2023-03-05T06:54:08;101864.66;;;2.89;100.00
69751;BME280;57335;52.288;6.056;2023-03-05T06:56:36;101871.63;;;2.98;100.00
69751;BME280;57335;52.288;6.056;2023-03-05T06:59:02;101857.97;;;2.96;100.00
69751;BME280;57335;52.288;6.056;2023-03-05T07:01:29;101857.47;;;3.02;100.00
69751;BME280;57335;52.288;6.056;2023-03-05T07:03:56;101863.50;;;3.12;100.00
69751;BME280;57335;52.288;6.056;2023-03-05T07:06:22;101845.88;;;3.06;100.00
69751;BME280;57335;52.288;6.056;2023-03-05T07:08:48;101862.97;;;3.18;100.00
69751;BME280;57335;52.288;6.056;2023-03-05T07:11:16;101871.44;;;3.30;100.00
69751;BME280;57335;52.288;6.056;2023-03-05T07:13:42;101860.28;;;3.30;100.00
69751;BME280;57335;52.288;6.056;2023-03-05T07:16:13;101858.25;;;3.33;100.00
69751;BME280;57335;52.288;6.056;2023-03-05T07:18:40;101847.47;;;3.38;100.00
69751;BME280;57335;52.288;6.056;2023-03-05T07:21:06;101854.59;;;3.46;100.00
69751;BME280;57335;52.288;6.056;2023-03-05T07:23:34;101852.00;;;3.46;100.00
69751;BME280;57335;52.288;6.056;2023-03-05T07:26:02;101849.09;;;3.49;100.00
69751;BME280;57335;52.288;6.056;2023-03-05T07:28:29;101850.50;;;3.53;100.00
69751;BME280;57335;52.288;6.056;2023-03-05T07:31:03;101840.16;;;3.53;100.00
69751;BME280;57335;52.288;6.056;2023-03-05T07:33:31;101850.91;;;3.58;100.00
69751;BME280;57335;52.288;6.056;2023-03-05T07:35:57;101849.69;;;3.62;100.00
69751;BME280;57335;52.288;6.056;2023-03-05T07:38:24;101841.09;;;3.62;100.00
69751;BME280;57335;52.288;6.056;2023-03-05T07:40:50;101858.56;;;3.69;100.00
69751;BME280;57335;52.288;6.056;2023-03-05T07:43:17;101850.50;;;3.72;100.00
69751;BME280;57335;52.288;6.056;2023-03-05T07:45:44;101852.28;;;3.72;100.00
69751;BME280;57335;52.288;6.056;2023-03-05T07:48:14;101842.34;;;3.67;100.00
69751;BME280;57335;52.288;6.056;2023-03-05T07:50:41;101849.28;;;3.76;100.00
69751;BME280;57335;52.288;6.056;2023-03-05T07:53:07;101843.69;;;3.81;100.00
69751;BME280;57335;52.288;6.056;2023-03-05T07:55:34;101852.13;;;3.93;100.00
69751;BME280;57335;52.288;6.056;2023-03-05T07:58:00;101836.88;;;3.90;100.00
69751;BME280;57335;52.288;6.056;2023-03-05T08:00:27;101836.88;;;3.99;100.00
69751;BME280;57335;52.288;6.056;2023-03-05T08:02:53;101846.94;;;4.12;100.00
69751;BME280;57335;52.288;6.056;2023-03-05T08:05:19;101833.84;;;4.14;100.00
69751;BME280;57335;52.288;6.056;2023-03-05T08:07:46;101846.50;;;4.27;100.00
69751;BME280;57335;52.288;6.056;2023-03-05T08:10:12;101830.25;;;4.25;100.00
69751;BME280;57335;52.288;6.056;2023-03-05T08:12:38;101841.72;;;4.42;100.00
69751;BME280;57335;52.288;6.056;2023-03-05T08:15:06;101837.88;;;4.46;100.00
69751;BME280;57335;52.288;6.056;2023-03-05T08:17:33;101836.50;;;4.51;100.00
69751;BME280;57335;52.288;6.056;2023-03-05T08:19:59;101843.97;;;4.64;100.00
69751;BME280;57335;52.288;6.056;2023-03-05T08:22:26;101830.84;;;4.66;100.00
69751;BME280;57335;52.288;6.056;2023-03-05T08:24:52;101841.44;;;4.82;100.00
69751;BME280;57335;52.288;6.056;2023-03-05T08:27:18;101837.69;;;4.94;100.00
69751;BME280;57335;52.288;6.056;2023-03-05T08:29:45;101838.63;;;5.21;100.00
69751;BME280;57335;52.288;6.056;2023-03-05T08:32:11;101820.47;;;5.39;100.00
69751;BME280;57335;52.288;6.056;2023-03-05T08:34:37;101822.78;;;5.60;100.00
69751;BME280;57335;52.288;6.056;2023-03-05T08:37:04;101839.19;;;5.78;100.00
69751;BME280;57335;52.288;6.056;2023-03-05T08:39:30;101826.56;;;5.84;100.00
69751;BME280;57335;52.288;6.056;2023-03-05T08:41:56;101818.16;;;5.90;100.00
69751;BME280;57335;52.288;6.056;2023-03-05T08:44:23;101817.28;;;5.99;100.00
69751;BME280;57335;52.288;6.056;2023-03-05T08:46:49;101810.38;;;6.08;100.00
69751;BME280;57335;52.288;6.056;2023-03-05T08:49:16;101810.03;;;6.11;98.67
69751;BME280;57335;52.288;6.056;2023-03-05T08:51:42;101807.28;;;6.12;96.39
69751;BME280;57335;52.288;6.056;2023-03-05T08:54:08;101803.31;;;6.26;100.00
69751;BME280;57335;52.288;6.056;2023-03-05T08:56:35;101817.28;;;6.51;97.68
69751;BME280;57335;52.288;6.056;2023-03-05T08:59:02;101801.00;;;6.84;99.69
69751;BME280;57335;52.288;6.056;2023-03-05T09:01:30;101806.31;;;7.16;94.46
69751;BME280;57335;52.288;6.056;2023-03-05T09:03:58;101790.53;;;7.43;93.69
69751;BME280;57335;52.288;6.056;2023-03-05T09:06:25;101784.38;;;7.68;89.74
69751;BME280;57335;52.288;6.056;2023-03-05T09:08:52;101790.81;;;8.13;89.28
69751;BME280;57335;52.288;6.056;2023-03-05T09:11:19;101799.53;;;8.62;86.53
69751;BME280;57335;52.288;6.056;2023-03-05T09:13:46;101783.72;;;8.94;86.17
69751;BME280;57335;52.288;6.056;2023-03-05T09:16:14;101788.59;;;9.29;83.88
69751;BME280;57335;52.288;6.056;2023-03-05T09:18:41;101792.75;;;9.61;83.69
69751;BME280;57335;52.288;6.056;2023-03-05T09:21:11;101790.47;;;9.96;82.02
69751;BME280;57335;52.288;6.056;2023-03-05T09:23:38;101772.66;;;10.14;76.72
69751;BME280;57335;52.288;6.056;2023-03-05T09:26:09;101773.00;;;10.11;76.01
69751;BME280;57335;52.288;6.056;2023-03-05T09:28:36;101786.50;;;10.00;76.08
69751;BME280;57335;52.288;6.056;2023-03-05T09:31:03;101778.94;;;9.90;78.30
69751;BME280;57335;52.288;6.056;2023-03-05T09:33:31;101762.78;;;9.49;77.70
69751;BME280;57335;52.288;6.056;2023-03-05T09:35:58;101765.63;;;9.39;73.71
69751;BME280;57335;52.288;6.056;2023-03-05T09:38:25;101765.66;;;9.54;78.25
69751;BME280;57335;52.288;6.056;2023-03-05T09:41:04;101771.41;;;9.72;75.22
69751;BME280;57335;52.288;6.056;2023-03-05T09:48:57;101747.66;;;9.13;77.33
69751;BME280;57335;52.288;6.056;2023-03-05T09:51:30;101752.22;;;8.88;77.19
69751;BME280;57335;52.288;6.056;2023-03-05T09:54:02;101760.56;;;8.83;76.09
69751;BME280;57335;52.288;6.056;2023-03-05T09:56:42;101773.66;;;8.83;77.50
69751;BME280;57335;52.288;6.056;2023-03-05T09:59:14;101773.38;;;8.78;76.93
69751;BME280;57335;52.288;6.056;2023-03-05T10:01:44;101750.63;;;8.47;77.50
69751;BME280;57335;52.288;6.056;2023-03-05T10:04:15;101749.81;;;8.38;78.33
69751;BME280;57335;52.288;6.056;2023-03-05T10:06:55;101764.47;;;8.48;79.25
69751;BME280;57335;52.288;6.056;2023-03-05T10:09:50;101762.66;;;8.56;76.94
69751;BME280;57335;52.288;6.056;2023-03-05T10:14:50;101742.66;;;9.03;79.26
69751;BME280;57335;52.288;6.056;2023-03-05T10:28:27;101724.69;;;9.46;75.05
69751;BME280;57335;52.288;6.056;2023-03-05T10:31:06;101717.75;;;9.53;72.23
69751;BME280;57335;52.288;6.056;2023-03-05T10:39:53;101722.09;;;9.23;69.29
69751;BME280;57335;52.288;6.056;2023-03-05T10:42:40;101731.66;;;8.53;73.79
69751;BME280;57335;52.288;6.056;2023-03-05T10:45:17;101749.78;;;7.66;78.53
69751;BME280;57335;52.288;6.056;2023-03-05T10:47:49;101747.78;;;7.11;83.72
69751;BME280;57335;52.288;6.056;2023-03-05T10:50:26;101742.84;;;6.83;84.16
69751;BME280;57335;52.288;6.056;2023-03-05T10:55:36;101737.34;;;6.44;89.21
69751;BME280;57335;52.288;6.056;2023-03-05T10:58:14;101728.63;;;6.27;88.95
69751;BME280;57335;52.288;6.056;2023-03-05T11:01:01;101724.06;;;6.21;91.43
69751;BME280;57335;52.288;6.056;2023-03-05T11:03:51;101721.44;;;6.21;92.29
69751;BME280;57335;52.288;6.056;2023-03-05T11:06:39;101711.84;;;6.21;92.59
69751;BME280;57335;52.288;6.056;2023-03-05T11:09:19;101713.69;;;6.29;92.21
69751;BME280;57335;52.288;6.056;2023-03-05T11:12:22;101707.88;;;6.43;94.19
69751;BME280;57335;52.288;6.056;2023-03-05T11:23:24;101707.09;;;7.10;93.99
69751;BME280;57335;52.288;6.056;2023-03-05T11:28:22;101691.75;;;7.39;93.03
69751;BME280;57335;52.288;6.056;2023-03-05T11:33:29;101665.50;;;7.57;93.47
69751;BME280;57335;52.288;6.056;2023-03-05T11:38:58;101668.69;;;7.92;89.48
69751;BME280;57335;52.288;6.056;2023-03-05T11:41:29;101655.78;;;7.99;88.88
69751;BME280;57335;52.288;6.056;2023-03-05T11:43:57;101660.94;;;8.15;86.97
69751;BME280;57335;52.288;6.056;2023-03-05T11:46:26;101662.06;;;8.21;86.18
69751;BME280;57335;52.288;6.056;2023-03-05T11:48:53;101647.34;;;8.28;87.52
69751;BME280;57335;52.288;6.056;2023-03-05T11:51:25;101635.22;;;8.35;82.92
69751;BME280;57335;52.288;6.056;2023-03-05T11:53:55;101652.78;;;8.50;83.32
69751;BME280;57335;52.288;6.056;2023-03-05T11:56:27;101638.28;;;8.47;83.70
69751;BME280;57335;52.288;6.056;2023-03-05T11:59:06;101648.69;;;8.55;82.42
69751;BME280;57335;52.288;6.056;2023-03-05T12:01:42;101633.00;;;8.55;82.63
69751;BME280;57335;52.288;6.056;2023-03-05T12:04:10;101618.59;;;8.59;82.76
69751;BME280;57335;52.288;6.056;2023-03-05T12:09:11;101622.28;;;8.73;81.13
69751;BME280;57335;52.288;6.056;2023-03-05T12:11:38;101618.22;;;8.71;78.46
69751;BME280;57335;52.288;6.056;2023-03-05T12:14:08;101618.34;;;8.54;74.88
69751;BME280;57335;52.288;6.056;2023-03-05T12:16:44;101619.53;;;8.35;80.07
69751;BME280;57335;52.288;6.056;2023-03-05T12:22:12;101609.09;;;8.04;78.83
69751;BME280;57335;52.288;6.056;2023-03-05T12:24:40;101588.75;;;7.91;81.89
69751;BME280;57335;52.288;6.056;2023-03-05T12:27:09;101582.25;;;7.87;83.35
69751;BME280;57335;52.288;6.056;2023-03-05T12:32:03;101585.53;;;7.81;84.24
69751;BME280;57335;52.288;6.056;2023-03-05T12:37:15;101575.97;;;7.65;83.77
69751;BME280;57335;52.288;6.056;2023-03-05T12:47:47;101551.56;;;7.58;87.53
69751;BME280;57335;52.288;6.056;2023-03-05T12:58:18;101533.34;;;8.12;80.15
69751;BME280;57335;52.288;6.056;2023-03-05T13:01:04;101517.00;;;8.18;79.72
69751;BME280;57335;52.288;6.056;2023-03-05T13:03:34;101511.00;;;8.33;80.65
69751;BME280;57335;52.288;6.056;2023-03-05T13:06:02;101512.56;;;8.50;80.12
69751;BME280;57335;52.288;6.056;2023-03-05T13:08:30;101500.41;;;8.57;81.23
69751;BME280;57335;52.288;6.056;2023-03-05T13:11:02;101512.97;;;8.77;81.62
69751;BME280;57335;52.288;6.056;2023-03-05T13:13:34;101505.59;;;8.81;80.05
69751;BME280;57335;52.288;6.056;2023-03-05T13:16:00;101508.84;;;8.83;78.39
69751;BME280;57335;52.288;6.056;2023-03-05T13:18:29;101497.47;;;8.75;78.38
69751;BME280;57335;52.288;6.056;2023-03-05T13:21:04;101500.53;;;8.79;79.64
69751;BME280;57335;52.288;6.056;2023-03-05T13:23:32;101494.34;;;8.80;78.99
69751;BME280;57335;52.288;6.056;2023-03-05T13:26:13;101491.34;;;8.83;78.00
69751;BME280;57335;52.288;6.056;2023-03-05T13:28:41;101479.53;;;8.72;74.54
69751;BME280;57335;52.288;6.056;2023-03-05T13:31:17;101472.16;;;8.76;76.77
69751;BME280;57335;52.288;6.056;2023-03-05T13:33:56;101464.25;;;8.84;77.55
69751;BME280;57335;52.288;6.056;2023-03-05T13:36:25;101466.22;;;8.97;78.61
69751;BME280;57335;52.288;6.056;2023-03-05T13:38:53;101456.31;;;9.07;77.27
69751;BME280;57335;52.288;6.056;2023-03-05T13:41:27;101446.47;;;9.09;77.72
69751;BME280;57335;52.288;6.056;2023-03-05T13:44:01;101452.41;;;9.18;72.61
69751;BME280;57335;52.288;6.056;2023-03-05T13:46:34;101451.47;;;9.04;72.90
69751;BME280;57335;52.288;6.056;2023-03-05T13:49:25;101452.97;;;8.98;72.55
69751;BME280;57335;52.288;6.056;2023-03-05T13:51:54;101436.94;;;8.87;74.27
69751;BME280;57335;52.288;6.056;2023-03-05T13:54:23;101434.66;;;8.69;69.28
69751;BME280;57335;52.288;6.056;2023-03-05T13:57:01;101443.00;;;8.49;74.28
69751;BME280;57335;52.288;6.056;2023-03-05T13:59:33;101432.19;;;8.29;68.75
69751;BME280;57335;52.288;6.056;2023-03-05T14:02:15;101436.22;;;8.17;72.96
69751;BME280;57335;52.288;6.056;2023-03-05T14:04:44;101432.91;;;8.23;74.66
69751;BME280;57335;52.288;6.056;2023-03-05T14:07:37;101444.78;;;8.26;72.21
69751;BME280;57335;52.288;6.056;2023-03-05T14:10:35;101440.56;;;8.25;74.58
69751;BME280;57335;52.288;6.056;2023-03-05T14:13:11;101433.00;;;8.30;74.08
69751;BME280;57335;52.288;6.056;2023-03-05T14:15:38;101423.31;;;8.38;72.21